General Edward Lawrence Logan International Airport Boston US
ICAO: KBOS
IATA: BOS
Category: Large
Scheduled Services: Yes

Elevation: 20 ft
TransAlt. 18000 ft.

Airport Communications:
BOSTON APP:118.25
ATIS:135
CLNC DEL:121.65
BOSTON DEP:133
GND:121.9
GATE:134.05
BRIDGEPORT RDO:122.4
BOSTON TWR:124.725
UNICOM:122.95

KBOS Zoom In..

Runways:

(A) RW 04L length 7861 ft width 150 ft
---- / hdg 36

(B) RW 04R length 10005 ft width 150 ft
ILS 110.30 / hdg 36

(C) RW 09 length 7000 ft width 150 ft
---- / hdg 93

(D) RW 14 length 5000 ft width 100 ft
---- / hdg 141

(E) RW 15L length 2557 ft width 100 ft
---- / hdg 151

(F) RW 15R length 10083 ft width 150 ft
ILS 110.70 / hdg 151

(G) RW 22L length 10005 ft width 150 ft
ILS 110.30 / hdg 216

(H) RW 22R length 7861 ft width 150 ft
---- / hdg 216

(I) RW 27 length 7000 ft width 150 ft
ILS 111.30 / hdg 273

(J) RW 32 length 5000 ft width 100 ft
---- / hdg 321

(K) RW 33L length 10083 ft width 150 ft
ILS 110.70 / hdg 331

(L) RW 33R length 2557 ft width 100 ft
---- / hdg 331

Location; KBOS
Day. 22 / Time. 03.54 Zulu
* Altimeter: 30.19
* Temperature: 02° c. 35.6°f.
* Wind from: 190° Speed 03 kn.
Dewpoint: -01° c.
Visibility: 10 Statute Miles.
Clouds: Scattered 22000 ft.
Clouds: Broken 25000 ft.

KBOS 220354Z 19003KT 10SM SCT220 BKN250 02/M01 A3019 RMK AO2 SLP224 T00221011


Wind From 190°
Speed 03 kn.

jpsM music video
CHECK IT OUT

jpsM - It Moves..

 
jpsmedia.com for Web Design  worldairports.se 2018   terms of use